sensor_id;sensor_type;location;lat;lon;timestamp;P1;durP1;ratioP1;P2;durP2;ratioP2
59006;SDS011;44792;52.760;6.726;2022-11-18T00:01:15;22.55;;;12.40;;
59006;SDS011;44792;52.760;6.726;2022-11-18T00:03:42;23.25;;;13.15;;
59006;SDS011;44792;52.760;6.726;2022-11-18T00:06:15;23.67;;;13.63;;
59006;SDS011;44792;52.760;6.726;2022-11-18T00:08:42;19.33;;;12.18;;
59006;SDS011;44792;52.760;6.726;2022-11-18T00:11:09;24.85;;;14.35;;
59006;SDS011;44792;52.760;6.726;2022-11-18T00:13:37;21.95;;;13.15;;
59006;SDS011;44792;52.760;6.726;2022-11-18T00:16:21;28.60;;;14.77;;
59006;SDS011;44792;52.760;6.726;2022-11-18T00:18:46;26.73;;;14.43;;
59006;SDS011;44792;52.760;6.726;2022-11-18T00:21:12;25.98;;;14.10;;
59006;SDS011;44792;52.760;6.726;2022-11-18T00:23:38;24.83;;;14.73;;
59006;SDS011;44792;52.760;6.726;2022-11-18T00:26:04;25.77;;;13.93;;
59006;SDS011;44792;52.760;6.726;2022-11-18T00:28:32;25.17;;;15.07;;
59006;SDS011;44792;52.760;6.726;2022-11-18T00:31:04;25.30;;;14.57;;
59006;SDS011;44792;52.760;6.726;2022-11-18T00:33:35;26.85;;;13.48;;
59006;SDS011;44792;52.760;6.726;2022-11-18T00:36:04;27.52;;;14.40;;
59006;SDS011;44792;52.760;6.726;2022-11-18T00:38:31;27.90;;;15.65;;
59006;SDS011;44792;52.760;6.726;2022-11-18T00:40:58;28.65;;;15.73;;
59006;SDS011;44792;52.760;6.726;2022-11-18T00:43:28;28.13;;;14.63;;
59006;SDS011;44792;52.760;6.726;2022-11-18T00:45:54;26.58;;;15.07;;
59006;SDS011;44792;52.760;6.726;2022-11-18T00:48:20;25.15;;;15.60;;
59006;SDS011;44792;52.760;6.726;2022-11-18T00:50:53;30.00;;;15.93;;
59006;SDS011;44792;52.760;6.726;2022-11-18T00:53:22;27.38;;;14.75;;
59006;SDS011;44792;52.760;6.726;2022-11-18T00:55:48;27.13;;;15.07;;
59006;SDS011;44792;52.760;6.726;2022-11-18T00:58:14;31.02;;;15.65;;
59006;SDS011;44792;52.760;6.726;2022-11-18T01:00:41;28.90;;;15.55;;
59006;SDS011;44792;52.760;6.726;2022-11-18T01:03:08;29.45;;;15.35;;
59006;SDS011;44792;52.760;6.726;2022-11-18T01:05:35;26.70;;;15.63;;
59006;SDS011;44792;52.760;6.726;2022-11-18T01:08:02;28.05;;;15.23;;
59006;SDS011;44792;52.760;6.726;2022-11-18T01:10:27;31.65;;;16.65;;
59006;SDS011;44792;52.760;6.726;2022-11-18T01:12:53;32.67;;;16.95;;
59006;SDS011;44792;52.760;6.726;2022-11-18T01:15:38;29.05;;;15.10;;
59006;SDS011;44792;52.760;6.726;2022-11-18T01:18:08;29.23;;;15.85;;
59006;SDS011;44792;52.760;6.726;2022-11-18T01:20:34;27.20;;;15.15;;
59006;SDS011;44792;52.760;6.726;2022-11-18T01:23:00;29.65;;;16.17;;
59006;SDS011;44792;52.760;6.726;2022-11-18T01:25:26;28.40;;;15.85;;
59006;SDS011;44792;52.760;6.726;2022-11-18T01:27:53;27.73;;;14.80;;
59006;SDS011;44792;52.760;6.726;2022-11-18T01:30:18;32.97;;;15.95;;
59006;SDS011;44792;52.760;6.726;2022-11-18T01:32:44;33.95;;;17.00;;
59006;SDS011;44792;52.760;6.726;2022-11-18T01:35:10;33.05;;;16.23;;
59006;SDS011;44792;52.760;6.726;2022-11-18T01:37:35;31.63;;;15.48;;
59006;SDS011;44792;52.760;6.726;2022-11-18T01:40:02;32.85;;;16.67;;
59006;SDS011;44792;52.760;6.726;2022-11-18T01:42:29;32.85;;;17.02;;
59006;SDS011;44792;52.760;6.726;2022-11-18T01:44:59;36.35;;;17.15;;
59006;SDS011;44792;52.760;6.726;2022-11-18T01:47:26;33.25;;;15.82;;
59006;SDS011;44792;52.760;6.726;2022-11-18T01:49:56;33.38;;;17.10;;
59006;SDS011;44792;52.760;6.726;2022-11-18T01:52:23;30.35;;;16.25;;
59006;SDS011;44792;52.760;6.726;2022-11-18T01:54:50;32.00;;;16.23;;
59006;SDS011;44792;52.760;6.726;2022-11-18T01:57:21;31.30;;;16.58;;
59006;SDS011;44792;52.760;6.726;2022-11-18T01:59:49;30.17;;;16.20;;
59006;SDS011;44792;52.760;6.726;2022-11-18T02:02:20;31.75;;;16.33;;
59006;SDS011;44792;52.760;6.726;2022-11-18T02:04:47;32.58;;;17.35;;
59006;SDS011;44792;52.760;6.726;2022-11-18T02:07:14;34.35;;;16.75;;
59006;SDS011;44792;52.760;6.726;2022-11-18T02:09:41;27.35;;;16.10;;
59006;SDS011;44792;52.760;6.726;2022-11-18T02:12:07;32.95;;;16.25;;
59006;SDS011;44792;52.760;6.726;2022-11-18T02:14:34;26.77;;;14.95;;
59006;SDS011;44792;52.760;6.726;2022-11-18T02:22:34;30.35;;;15.35;;
59006;SDS011;44792;52.760;6.726;2022-11-18T02:30:33;29.65;;;15.25;;
59006;SDS011;44792;52.760;6.726;2022-11-18T02:33:10;28.52;;;15.20;;
59006;SDS011;44792;52.760;6.726;2022-11-18T02:35:42;28.90;;;15.07;;
59006;SDS011;44792;52.760;6.726;2022-11-18T02:38:15;30.85;;;15.63;;
59006;SDS011;44792;52.760;6.726;2022-11-18T02:40:54;32.38;;;16.25;;
59006;SDS011;44792;52.760;6.726;2022-11-18T02:43:24;30.80;;;14.55;;
59006;SDS011;44792;52.760;6.726;2022-11-18T02:45:55;32.70;;;15.73;;
59006;SDS011;44792;52.760;6.726;2022-11-18T02:48:25;29.88;;;15.50;;
59006;SDS011;44792;52.760;6.726;2022-11-18T02:50:54;29.35;;;16.30;;
59006;SDS011;44792;52.760;6.726;2022-11-18T02:53:21;31.83;;;15.82;;
59006;SDS011;44792;52.760;6.726;2022-11-18T02:55:49;27.27;;;14.68;;
59006;SDS011;44792;52.760;6.726;2022-11-18T02:58:16;29.65;;;16.40;;
59006;SDS011;44792;52.760;6.726;2022-11-18T03:00:44;32.75;;;16.05;;
59006;SDS011;44792;52.760;6.726;2022-11-18T03:03:30;28.98;;;15.18;;
59006;SDS011;44792;52.760;6.726;2022-11-18T03:06:06;29.90;;;15.95;;
59006;SDS011;44792;52.760;6.726;2022-11-18T03:08:54;32.55;;;15.38;;
59006;SDS011;44792;52.760;6.726;2022-11-18T03:17:08;25.75;;;14.98;;
59006;SDS011;44792;52.760;6.726;2022-11-18T03:22:23;26.80;;;13.95;;
59006;SDS011;44792;52.760;6.726;2022-11-18T03:24:59;27.33;;;13.65;;
59006;SDS011;44792;52.760;6.726;2022-11-18T03:27:37;29.48;;;15.65;;
59006;SDS011;44792;52.760;6.726;2022-11-18T03:30:14;30.42;;;15.15;;
59006;SDS011;44792;52.760;6.726;2022-11-18T03:32:44;33.20;;;15.05;;
59006;SDS011;44792;52.760;6.726;2022-11-18T03:35:16;33.30;;;16.25;;
59006;SDS011;44792;52.760;6.726;2022-11-18T03:37:46;27.52;;;15.38;;
59006;SDS011;44792;52.760;6.726;2022-11-18T03:40:17;27.80;;;14.70;;
59006;SDS011;44792;52.760;6.726;2022-11-18T03:42:47;33.72;;;15.05;;
59006;SDS011;44792;52.760;6.726;2022-11-18T03:45:21;24.98;;;15.10;;
59006;SDS011;44792;52.760;6.726;2022-11-18T03:48:10;31.70;;;15.13;;
59006;SDS011;44792;52.760;6.726;2022-11-18T03:50:44;26.00;;;14.50;;
59006;SDS011;44792;52.760;6.726;2022-11-18T03:53:15;28.42;;;14.75;;
59006;SDS011;44792;52.760;6.726;2022-11-18T03:55:45;27.75;;;14.93;;
59006;SDS011;44792;52.760;6.726;2022-11-18T03:58:19;25.98;;;14.27;;
59006;SDS011;44792;52.760;6.726;2022-11-18T04:00:56;28.73;;;14.98;;
59006;SDS011;44792;52.760;6.726;2022-11-18T04:05:54;26.27;;;13.65;;
59006;SDS011;44792;52.760;6.726;2022-11-18T04:08:29;26.90;;;15.35;;
59006;SDS011;44792;52.760;6.726;2022-11-18T04:11:01;32.40;;;15.97;;
59006;SDS011;44792;52.760;6.726;2022-11-18T04:13:57;30.38;;;14.57;;
59006;SDS011;44792;52.760;6.726;2022-11-18T04:16:23;31.92;;;15.80;;
59006;SDS011;44792;52.760;6.726;2022-11-18T04:18:49;31.73;;;14.77;;
59006;SDS011;44792;52.760;6.726;2022-11-18T04:21:14;28.52;;;14.35;;
59006;SDS011;44792;52.760;6.726;2022-11-18T04:23:40;26.45;;;15.55;;
59006;SDS011;44792;52.760;6.726;2022-11-18T04:26:05;32.10;;;15.48;;
59006;SDS011;44792;52.760;6.726;2022-11-18T04:28:31;30.50;;;16.20;;
59006;SDS011;44792;52.760;6.726;2022-11-18T04:30:56;28.90;;;15.05;;
59006;SDS011;44792;52.760;6.726;2022-11-18T04:33:22;26.90;;;14.98;;
59006;SDS011;44792;52.760;6.726;2022-11-18T04:35:47;28.73;;;14.52;;
59006;SDS011;44792;52.760;6.726;2022-11-18T04:38:13;28.23;;;15.00;;
59006;SDS011;44792;52.760;6.726;2022-11-18T04:40:38;33.33;;;15.82;;
59006;SDS011;44792;52.760;6.726;2022-11-18T04:43:04;29.17;;;15.85;;
59006;SDS011;44792;52.760;6.726;2022-11-18T04:45:29;24.92;;;14.50;;
59006;SDS011;44792;52.760;6.726;2022-11-18T04:47:55;25.52;;;13.98;;
59006;SDS011;44792;52.760;6.726;2022-11-18T04:50:20;31.35;;;15.43;;
59006;SDS011;44792;52.760;6.726;2022-11-18T04:52:46;27.33;;;14.77;;
59006;SDS011;44792;52.760;6.726;2022-11-18T04:55:11;26.10;;;14.45;;
59006;SDS011;44792;52.760;6.726;2022-11-18T04:57:37;31.30;;;15.18;;
59006;SDS011;44792;52.760;6.726;2022-11-18T05:00:03;31.38;;;14.68;;
59006;SDS011;44792;52.760;6.726;2022-11-18T05:02:29;24.20;;;13.27;;
59006;SDS011;44792;52.760;6.726;2022-11-18T05:04:54;28.60;;;14.35;;
59006;SDS011;44792;52.760;6.726;2022-11-18T05:07:20;32.28;;;15.73;;
59006;SDS011;44792;52.760;6.726;2022-11-18T05:09:45;27.65;;;14.10;;
59006;SDS011;44792;52.760;6.726;2022-11-18T05:12:11;28.70;;;14.90;;
59006;SDS011;44792;52.760;6.726;2022-11-18T05:14:56;26.25;;;14.93;;
59006;SDS011;44792;52.760;6.726;2022-11-18T05:17:22;26.88;;;13.75;;
59006;SDS011;44792;52.760;6.726;2022-11-18T05:19:48;25.60;;;13.63;;
59006;SDS011;44792;52.760;6.726;2022-11-18T05:22:13;28.63;;;14.77;;
59006;SDS011;44792;52.760;6.726;2022-11-18T05:24:39;27.95;;;15.63;;
59006;SDS011;44792;52.760;6.726;2022-11-18T05:27:05;31.92;;;16.00;;
59006;SDS011;44792;52.760;6.726;2022-11-18T05:29:31;34.03;;;15.60;;
59006;SDS011;44792;52.760;6.726;2022-11-18T05:31:57;30.10;;;15.57;;
59006;SDS011;44792;52.760;6.726;2022-11-18T05:34:23;25.75;;;14.57;;
59006;SDS011;44792;52.760;6.726;2022-11-18T05:36:49;27.15;;;14.27;;
59006;SDS011;44792;52.760;6.726;2022-11-18T05:39:14;25.83;;;14.05;;
59006;SDS011;44792;52.760;6.726;2022-11-18T05:41:40;27.85;;;13.77;;
59006;SDS011;44792;52.760;6.726;2022-11-18T05:44:24;32.92;;;14.73;;
59006;SDS011;44792;52.760;6.726;2022-11-18T05:46:50;28.65;;;14.95;;
59006;SDS011;44792;52.760;6.726;2022-11-18T05:49:16;28.95;;;14.93;;
59006;SDS011;44792;52.760;6.726;2022-11-18T05:51:41;28.30;;;13.68;;
59006;SDS011;44792;52.760;6.726;2022-11-18T05:54:07;28.17;;;13.80;;
59006;SDS011;44792;52.760;6.726;2022-11-18T05:56:38;28.83;;;14.40;;
59006;SDS011;44792;52.760;6.726;2022-11-18T05:59:05;30.80;;;15.43;;
59006;SDS011;44792;52.760;6.726;2022-11-18T06:04:10;30.90;;;15.27;;
59006;SDS011;44792;52.760;6.726;2022-11-18T06:06:45;26.73;;;14.73;;
59006;SDS011;44792;52.760;6.726;2022-11-18T06:09:13;26.40;;;14.57;;
59006;SDS011;44792;52.760;6.726;2022-11-18T06:11:43;31.38;;;15.57;;
59006;SDS011;44792;52.760;6.726;2022-11-18T06:14:14;28.00;;;14.57;;
59006;SDS011;44792;52.760;6.726;2022-11-18T06:16:46;26.05;;;14.40;;
59006;SDS011;44792;52.760;6.726;2022-11-18T06:19:15;31.52;;;15.00;;
59006;SDS011;44792;52.760;6.726;2022-11-18T06:21:42;31.70;;;13.57;;
59006;SDS011;44792;52.760;6.726;2022-11-18T06:24:08;25.15;;;13.48;;
59006;SDS011;44792;52.760;6.726;2022-11-18T06:26:35;26.45;;;14.00;;
59006;SDS011;44792;52.760;6.726;2022-11-18T06:29:01;25.65;;;13.15;;
59006;SDS011;44792;52.760;6.726;2022-11-18T06:31:28;30.58;;;13.95;;
59006;SDS011;44792;52.760;6.726;2022-11-18T06:33:53;28.05;;;13.63;;
59006;SDS011;44792;52.760;6.726;2022-11-18T06:36:19;30.05;;;14.82;;
59006;SDS011;44792;52.760;6.726;2022-11-18T06:38:44;32.13;;;14.85;;
59006;SDS011;44792;52.760;6.726;2022-11-18T06:41:10;31.33;;;15.82;;
59006;SDS011;44792;52.760;6.726;2022-11-18T06:43:35;25.75;;;13.35;;
59006;SDS011;44792;52.760;6.726;2022-11-18T06:46:06;25.80;;;13.95;;
59006;SDS011;44792;52.760;6.726;2022-11-18T06:48:58;26.65;;;13.23;;
59006;SDS011;44792;52.760;6.726;2022-11-18T06:51:24;25.40;;;13.13;;
59006;SDS011;44792;52.760;6.726;2022-11-18T06:53:50;25.73;;;12.55;;
59006;SDS011;44792;52.760;6.726;2022-11-18T06:56:17;23.63;;;12.73;;
59006;SDS011;44792;52.760;6.726;2022-11-18T06:58:44;24.40;;;11.35;;
59006;SDS011;44792;52.760;6.726;2022-11-18T07:03:43;19.27;;;10.43;;
59006;SDS011;44792;52.760;6.726;2022-11-18T07:06:10;20.67;;;11.02;;
59006;SDS011;44792;52.760;6.726;2022-11-18T07:08:38;18.58;;;10.40;;
59006;SDS011;44792;52.760;6.726;2022-11-18T07:11:06;20.98;;;10.20;;
59006;SDS011;44792;52.760;6.726;2022-11-18T07:13:33;19.67;;;8.95;;
59006;SDS011;44792;52.760;6.726;2022-11-18T07:16:06;17.65;;;9.10;;
59006;SDS011;44792;52.760;6.726;2022-11-18T07:18:39;20.85;;;10.02;;
59006;SDS011;44792;52.760;6.726;2022-11-18T07:21:07;19.55;;;10.25;;
59006;SDS011;44792;52.760;6.726;2022-11-18T07:23:34;17.70;;;9.82;;
59006;SDS011;44792;52.760;6.726;2022-11-18T07:25:59;18.17;;;9.93;;
59006;SDS011;44792;52.760;6.726;2022-11-18T07:28:26;20.13;;;10.82;;
59006;SDS011;44792;52.760;6.726;2022-11-18T07:31:02;20.10;;;10.43;;
59006;SDS011;44792;52.760;6.726;2022-11-18T07:33:29;26.33;;;11.65;;
59006;SDS011;44792;52.760;6.726;2022-11-18T07:35:59;24.33;;;11.10;;
59006;SDS011;44792;52.760;6.726;2022-11-18T07:40:54;23.85;;;11.75;;
59006;SDS011;44792;52.760;6.726;2022-11-18T07:43:20;23.55;;;11.15;;
59006;SDS011;44792;52.760;6.726;2022-11-18T07:45:45;22.75;;;11.02;;
59006;SDS011;44792;52.760;6.726;2022-11-18T07:48:11;20.80;;;10.75;;
59006;SDS011;44792;52.760;6.726;2022-11-18T07:50:36;21.30;;;11.23;;
59006;SDS011;44792;52.760;6.726;2022-11-18T07:53:02;23.95;;;11.23;;
59006;SDS011;44792;52.760;6.726;2022-11-18T07:55:27;23.45;;;11.20;;
59006;SDS011;44792;52.760;6.726;2022-11-18T07:57:54;20.95;;;11.48;;
59006;SDS011;44792;52.760;6.726;2022-11-18T08:00:27;22.80;;;10.80;;
59006;SDS011;44792;52.760;6.726;2022-11-18T08:02:52;23.70;;;10.50;;
59006;SDS011;44792;52.760;6.726;2022-11-18T08:05:18;28.67;;;10.77;;
59006;SDS011;44792;52.760;6.726;2022-11-18T08:07:43;21.35;;;10.75;;
59006;SDS011;44792;52.760;6.726;2022-11-18T08:10:09;23.02;;;10.80;;
59006;SDS011;44792;52.760;6.726;2022-11-18T08:12:34;23.50;;;11.07;;
59006;SDS011;44792;52.760;6.726;2022-11-18T08:15:00;16.30;;;9.38;;
59006;SDS011;44792;52.760;6.726;2022-11-18T08:17:25;19.42;;;10.50;;
59006;SDS011;44792;52.760;6.726;2022-11-18T08:19:51;22.63;;;9.98;;
59006;SDS011;44792;52.760;6.726;2022-11-18T08:22:16;22.73;;;9.55;;
59006;SDS011;44792;52.760;6.726;2022-11-18T08:24:44;20.05;;;9.50;;
59006;SDS011;44792;52.760;6.726;2022-11-18T08:27:11;21.92;;;9.68;;
59006;SDS011;44792;52.760;6.726;2022-11-18T08:29:37;17.77;;;9.13;;
59006;SDS011;44792;52.760;6.726;2022-11-18T08:32:03;17.08;;;9.30;;
59006;SDS011;44792;52.760;6.726;2022-11-18T08:34:30;19.23;;;8.93;;
59006;SDS011;44792;52.760;6.726;2022-11-18T08:36:56;18.40;;;9.57;;
59006;SDS011;44792;52.760;6.726;2022-11-18T08:39:21;18.02;;;9.13;;
59006;SDS011;44792;52.760;6.726;2022-11-18T08:41:47;16.65;;;8.35;;
59006;SDS011;44792;52.760;6.726;2022-11-18T08:44:13;17.63;;;8.68;;
59006;SDS011;44792;52.760;6.726;2022-11-18T08:46:40;17.42;;;10.35;;
59006;SDS011;44792;52.760;6.726;2022-11-18T08:49:06;15.77;;;8.57;;
59006;SDS011;44792;52.760;6.726;2022-11-18T08:51:32;21.10;;;9.52;;
59006;SDS011;44792;52.760;6.726;2022-11-18T08:53:57;16.10;;;8.85;;
59006;SDS011;44792;52.760;6.726;2022-11-18T08:56:23;20.48;;;10.65;;
59006;SDS011;44792;52.760;6.726;2022-11-18T08:58:49;19.52;;;10.73;;
59006;SDS011;44792;52.760;6.726;2022-11-18T09:01:15;19.42;;;10.15;;
59006;SDS011;44792;52.760;6.726;2022-11-18T09:03:41;19.10;;;10.60;;
59006;SDS011;44792;52.760;6.726;2022-11-18T09:06:08;19.55;;;10.18;;
59006;SDS011;44792;52.760;6.726;2022-11-18T09:08:38;17.80;;;9.52;;
59006;SDS011;44792;52.760;6.726;2022-11-18T09:11:07;20.35;;;8.80;;
59006;SDS011;44792;52.760;6.726;2022-11-18T09:13:35;13.85;;;8.52;;
59006;SDS011;44792;52.760;6.726;2022-11-18T09:16:01;14.52;;;8.13;;
59006;SDS011;44792;52.760;6.726;2022-11-18T09:18:28;15.45;;;9.40;;
59006;SDS011;44792;52.760;6.726;2022-11-18T09:20:57;20.63;;;9.70;;
59006;SDS011;44792;52.760;6.726;2022-11-18T09:23:25;17.75;;;9.88;;
59006;SDS011;44792;52.760;6.726;2022-11-18T09:26:04;17.42;;;9.95;;
59006;SDS011;44792;52.760;6.726;2022-11-18T09:28:40;14.18;;;8.70;;
59006;SDS011;44792;52.760;6.726;2022-11-18T09:31:10;16.17;;;8.68;;
59006;SDS011;44792;52.760;6.726;2022-11-18T09:33:37;18.10;;;9.20;;
59006;SDS011;44792;52.760;6.726;2022-11-18T09:36:04;13.88;;;8.88;;
59006;SDS011;44792;52.760;6.726;2022-11-18T09:38:35;15.98;;;9.20;;
59006;SDS011;44792;52.760;6.726;2022-11-18T09:52:02;17.20;;;9.20;;
59006;SDS011;44792;52.760;6.726;2022-11-18T09:54:30;15.75;;;8.63;;
59006;SDS011;44792;52.760;6.726;2022-11-18T09:56:58;19.35;;;8.93;;
59006;SDS011;44792;52.760;6.726;2022-11-18T09:59:25;17.63;;;9.50;;
59006;SDS011;44792;52.760;6.726;2022-11-18T10:01:55;14.57;;;8.35;;
59006;SDS011;44792;52.760;6.726;2022-11-18T10:04:26;16.65;;;7.60;;
59006;SDS011;44792;52.760;6.726;2022-11-18T10:06:52;14.10;;;9.13;;
59006;SDS011;44792;52.760;6.726;2022-11-18T10:09:32;16.80;;;8.00;;
59006;SDS011;44792;52.760;6.726;2022-11-18T10:12:06;15.43;;;7.70;;
59006;SDS011;44792;52.760;6.726;2022-11-18T10:15:42;16.17;;;8.95;;
59006;SDS011;44792;52.760;6.726;2022-11-18T10:21:11;16.60;;;8.25;;
59006;SDS011;44792;52.760;6.726;2022-11-18T10:23:58;16.08;;;9.13;;
59006;SDS011;44792;52.760;6.726;2022-11-18T10:26:55;23.33;;;9.75;;
59006;SDS011;44792;52.760;6.726;2022-11-18T10:29:22;16.52;;;8.90;;
59006;SDS011;44792;52.760;6.726;2022-11-18T10:34:33;20.02;;;9.75;;
59006;SDS011;44792;52.760;6.726;2022-11-18T10:40:24;16.77;;;9.70;;
59006;SDS011;44792;52.760;6.726;2022-11-18T10:42:51;20.20;;;9.70;;
59006;SDS011;44792;52.760;6.726;2022-11-18T10:50:40;16.85;;;9.30;;
59006;SDS011;44792;52.760;6.726;2022-11-18T10:56:10;17.27;;;9.68;;
59006;SDS011;44792;52.760;6.726;2022-11-18T10:58:41;21.83;;;10.50;;
59006;SDS011;44792;52.760;6.726;2022-11-18T11:06:35;19.40;;;8.32;;
59006;SDS011;44792;52.760;6.726;2022-11-18T11:11:33;15.80;;;8.38;;
59006;SDS011;44792;52.760;6.726;2022-11-18T11:16:58;15.90;;;8.73;;
59006;SDS011;44792;52.760;6.726;2022-11-18T11:19:37;13.37;;;7.57;;
59006;SDS011;44792;52.760;6.726;2022-11-18T11:22:15;15.73;;;8.38;;
59006;SDS011;44792;52.760;6.726;2022-11-18T11:24:42;17.77;;;8.13;;
59006;SDS011;44792;52.760;6.726;2022-11-18T11:27:19;14.40;;;8.13;;
59006;SDS011;44792;52.760;6.726;2022-11-18T11:30:10;13.05;;;6.85;;
59006;SDS011;44792;52.760;6.726;2022-11-18T11:32:44;9.07;;;6.03;;
59006;SDS011;44792;52.760;6.726;2022-11-18T11:48:55;12.75;;;6.72;;
59006;SDS011;44792;52.760;6.726;2022-11-18T11:54:20;10.18;;;5.80;;
59006;SDS011;44792;52.760;6.726;2022-11-18T11:57:03;9.43;;;5.47;;
59006;SDS011;44792;52.760;6.726;2022-11-18T11:59:53;11.27;;;5.85;;
59006;SDS011;44792;52.760;6.726;2022-11-18T12:05:24;12.00;;;6.53;;
59006;SDS011;44792;52.760;6.726;2022-11-18T12:07:59;12.52;;;6.60;;
59006;SDS011;44792;52.760;6.726;2022-11-18T12:13:22;11.68;;;7.03;;
59006;SDS011;44792;52.760;6.726;2022-11-18T12:18:49;13.32;;;7.80;;
59006;SDS011;44792;52.760;6.726;2022-11-18T12:26:41;14.48;;;6.93;;
59006;SDS011;44792;52.760;6.726;2022-11-18T12:31:42;13.85;;;6.93;;
59006;SDS011;44792;52.760;6.726;2022-11-18T12:34:19;14.25;;;7.28;;
59006;SDS011;44792;52.760;6.726;2022-11-18T12:36:55;13.30;;;6.65;;
59006;SDS011;44792;52.760;6.726;2022-11-18T12:44:46;16.08;;;7.88;;
59006;SDS011;44792;52.760;6.726;2022-11-18T12:47:14;14.32;;;7.78;;
59006;SDS011;44792;52.760;6.726;2022-11-18T12:54:53;17.00;;;7.57;;
59006;SDS011;44792;52.760;6.726;2022-11-18T12:57:27;20.45;;;8.75;;
59006;SDS011;44792;52.760;6.726;2022-11-18T12:59:55;19.20;;;9.15;;
59006;SDS011;44792;52.760;6.726;2022-11-18T13:02:25;18.90;;;9.40;;
59006;SDS011;44792;52.760;6.726;2022-11-18T13:05:05;18.08;;;8.18;;
59006;SDS011;44792;52.760;6.726;2022-11-18T13:07:38;16.40;;;7.85;;
59006;SDS011;44792;52.760;6.726;2022-11-18T13:10:27;18.10;;;7.88;;
59006;SDS011;44792;52.760;6.726;2022-11-18T13:12:55;18.25;;;8.73;;
59006;SDS011;44792;52.760;6.726;2022-11-18T13:15:21;19.20;;;8.80;;
59006;SDS011;44792;52.760;6.726;2022-11-18T13:18:14;19.10;;;9.48;;
59006;SDS011;44792;52.760;6.726;2022-11-18T13:20:42;18.52;;;9.48;;
59006;SDS011;44792;52.760;6.726;2022-11-18T13:23:26;18.05;;;9.57;;
59006;SDS011;44792;52.760;6.726;2022-11-18T13:26:17;18.40;;;9.43;;
59006;SDS011;44792;52.760;6.726;2022-11-18T13:31:28;14.40;;;7.90;;
59006;SDS011;44792;52.760;6.726;2022-11-18T13:34:07;14.23;;;7.50;;
59006;SDS011;44792;52.760;6.726;2022-11-18T13:36:45;14.30;;;7.43;;
59006;SDS011;44792;52.760;6.726;2022-11-18T13:39:31;15.77;;;7.38;;
59006;SDS011;44792;52.760;6.726;2022-11-18T13:42:04;16.38;;;7.80;;
59006;SDS011;44792;52.760;6.726;2022-11-18T13:44:32;15.50;;;8.30;;
59006;SDS011;44792;52.760;6.726;2022-11-18T13:47:02;16.65;;;7.10;;
59006;SDS011;44792;52.760;6.726;2022-11-18T13:49:54;19.67;;;9.05;;
59006;SDS011;44792;52.760;6.726;2022-11-18T13:52:28;15.27;;;6.88;;
59006;SDS011;44792;52.760;6.726;2022-11-18T13:54:59;15.18;;;7.38;;
59006;SDS011;44792;52.760;6.726;2022-11-18T13:57:30;14.82;;;8.30;;
59006;SDS011;44792;52.760;6.726;2022-11-18T13:59:57;16.30;;;6.97;;
59006;SDS011;44792;52.760;6.726;2022-11-18T14:02:26;15.38;;;8.13;;
59006;SDS011;44792;52.760;6.726;2022-11-18T14:04:55;14.35;;;8.45;;
59006;SDS011;44792;52.760;6.726;2022-11-18T14:10:03;17.17;;;8.82;;
59006;SDS011;44792;52.760;6.726;2022-11-18T14:12:32;17.85;;;8.25;;
59006;SDS011;44792;52.760;6.726;2022-11-18T14:17:57;18.80;;;9.63;;
59006;SDS011;44792;52.760;6.726;2022-11-18T14:20:25;18.83;;;9.40;;
59006;SDS011;44792;52.760;6.726;2022-11-18T14:22:56;16.25;;;8.40;;
59006;SDS011;44792;52.760;6.726;2022-11-18T14:25:30;17.52;;;8.35;;
59006;SDS011;44792;52.760;6.726;2022-11-18T14:28:12;20.30;;;9.73;;
59006;SDS011;44792;52.760;6.726;2022-11-18T14:33:20;18.70;;;9.30;;
59006;SDS011;44792;52.760;6.726;2022-11-18T14:35:49;20.08;;;9.10;;
59006;SDS011;44792;52.760;6.726;2022-11-18T14:38:21;17.25;;;8.90;;
59006;SDS011;44792;52.760;6.726;2022-11-18T14:41:07;17.70;;;8.70;;
59006;SDS011;44792;52.760;6.726;2022-11-18T14:43:35;18.70;;;9.20;;
59006;SDS011;44792;52.760;6.726;2022-11-18T14:46:02;15.15;;;8.43;;
59006;SDS011;44792;52.760;6.726;2022-11-18T14:48:30;19.25;;;9.05;;
59006;SDS011;44792;52.760;6.726;2022-11-18T14:50:59;19.40;;;9.65;;
59006;SDS011;44792;52.760;6.726;2022-11-18T14:53:24;17.17;;;8.88;;
59006;SDS011;44792;52.760;6.726;2022-11-18T14:55:51;19.23;;;9.30;;
59006;SDS011;44792;52.760;6.726;2022-11-18T14:58:18;19.92;;;10.30;;
59006;SDS011;44792;52.760;6.726;2022-11-18T15:00:45;19.02;;;9.00;;
59006;SDS011;44792;52.760;6.726;2022-11-18T15:03:12;16.08;;;8.88;;
59006;SDS011;44792;52.760;6.726;2022-11-18T15:05:38;19.50;;;9.55;;
59006;SDS011;44792;52.760;6.726;2022-11-18T15:08:04;17.85;;;8.68;;
59006;SDS011;44792;52.760;6.726;2022-11-18T15:10:30;18.02;;;8.23;;
59006;SDS011;44792;52.760;6.726;2022-11-18T15:12:56;17.27;;;8.77;;
59006;SDS011;44792;52.760;6.726;2022-11-18T15:15:22;14.55;;;8.55;;
59006;SDS011;44792;52.760;6.726;2022-11-18T15:17:47;15.50;;;8.02;;
59006;SDS011;44792;52.760;6.726;2022-11-18T15:20:17;18.23;;;9.30;;
59006;SDS011;44792;52.760;6.726;2022-11-18T15:22:45;16.25;;;7.43;;
59006;SDS011;44792;52.760;6.726;2022-11-18T15:25:10;14.90;;;8.07;;
59006;SDS011;44792;52.760;6.726;2022-11-18T15:27:36;16.35;;;8.63;;
59006;SDS011;44792;52.760;6.726;2022-11-18T15:30:02;14.48;;;8.40;;
59006;SDS011;44792;52.760;6.726;2022-11-18T15:32:28;16.60;;;8.10;;
59006;SDS011;44792;52.760;6.726;2022-11-18T15:34:54;16.98;;;8.43;;
59006;SDS011;44792;52.760;6.726;2022-11-18T15:37:20;18.95;;;9.43;;
59006;SDS011;44792;52.760;6.726;2022-11-18T15:39:45;17.63;;;8.43;;
59006;SDS011;44792;52.760;6.726;2022-11-18T15:42:14;18.52;;;8.85;;
59006;SDS011;44792;52.760;6.726;2022-11-18T15:44:41;18.52;;;9.30;;
59006;SDS011;44792;52.760;6.726;2022-11-18T15:47:06;17.27;;;9.10;;
59006;SDS011;44792;52.760;6.726;2022-11-18T15:49:32;17.45;;;8.15;;
59006;SDS011;44792;52.760;6.726;2022-11-18T15:51:57;18.48;;;7.97;;
59006;SDS011;44792;52.760;6.726;2022-11-18T15:54:23;14.38;;;7.20;;
59006;SDS011;44792;52.760;6.726;2022-11-18T15:56:49;15.40;;;8.05;;
59006;SDS011;44792;52.760;6.726;2022-11-18T15:59:15;14.48;;;8.23;;
59006;SDS011;44792;52.760;6.726;2022-11-18T16:01:41;14.55;;;7.78;;
59006;SDS011;44792;52.760;6.726;2022-11-18T16:04:09;15.35;;;7.82;;
59006;SDS011;44792;52.760;6.726;2022-11-18T16:06:36;16.30;;;8.32;;
59006;SDS011;44792;52.760;6.726;2022-11-18T16:09:03;14.20;;;7.18;;
59006;SDS011;44792;52.760;6.726;2022-11-18T16:11:29;16.17;;;6.97;;
59006;SDS011;44792;52.760;6.726;2022-11-18T16:14:14;15.73;;;6.88;;
59006;SDS011;44792;52.760;6.726;2022-11-18T16:16:42;15.60;;;6.32;;
59006;SDS011;44792;52.760;6.726;2022-11-18T16:19:10;13.40;;;6.45;;
59006;SDS011;44792;52.760;6.726;2022-11-18T16:21:38;11.57;;;6.40;;
59006;SDS011;44792;52.760;6.726;2022-11-18T16:24:06;12.82;;;7.05;;
59006;SDS011;44792;52.760;6.726;2022-11-18T16:26:33;13.60;;;7.40;;
59006;SDS011;44792;52.760;6.726;2022-11-18T16:28:59;15.73;;;7.22;;
59006;SDS011;44792;52.760;6.726;2022-11-18T16:31:25;13.77;;;7.53;;
59006;SDS011;44792;52.760;6.726;2022-11-18T16:34:14;14.32;;;8.32;;
59006;SDS011;44792;52.760;6.726;2022-11-18T16:36:42;11.07;;;6.40;;
59006;SDS011;44792;52.760;6.726;2022-11-18T16:39:13;13.40;;;7.10;;
59006;SDS011;44792;52.760;6.726;2022-11-18T16:41:41;12.68;;;7.45;;
59006;SDS011;44792;52.760;6.726;2022-11-18T16:44:12;19.50;;;7.90;;
59006;SDS011;44792;52.760;6.726;2022-11-18T16:46:39;12.80;;;8.10;;